createdAt,value
2017-06-13T00:01:10.099Z,68.27
2017-06-13T00:03:12.025Z,69.39
2017-06-13T00:05:13.758Z,69.29
2017-06-13T00:07:15.635Z,69.29
2017-06-13T00:09:17.536Z,69.20
2017-06-13T00:11:19.437Z,69.71
2017-06-13T00:13:21.236Z,69.33
2017-06-13T00:15:23.133Z,69.52
2017-06-13T00:17:25.079Z,69.42
2017-06-13T00:19:26.885Z,69.52
2017-06-13T00:21:28.620Z,69.48
2017-06-13T00:23:30.558Z,69.29
2017-06-13T00:25:32.414Z,69.68
2017-06-13T00:27:34.306Z,70.15
2017-06-13T00:29:36.139Z,70.15
2017-06-13T00:31:38.015Z,69.68
2017-06-13T00:33:39.820Z,70.06
2017-06-13T00:35:41.558Z,70.06
2017-06-13T00:37:43.450Z,69.68
2017-06-13T00:39:46.008Z,69.58
2017-06-13T00:41:47.763Z,70.25
2017-06-13T00:43:49.551Z,70.06
2017-06-13T00:45:51.477Z,70.35
2017-06-13T00:47:53.366Z,69.96
2017-06-13T00:49:55.197Z,70.44
2017-06-13T00:51:56.943Z,69.96
2017-06-13T00:53:58.853Z,70.25
2017-06-13T00:56:00.813Z,70.15
2017-06-13T00:58:02.663Z,70.35
2017-06-13T01:00:04.452Z,71.40
2017-06-13T01:02:06.355Z,71.59
2017-06-13T01:04:08.116Z,70.92
2017-06-13T01:06:10.022Z,70.83
2017-06-13T01:08:11.904Z,71.02
2017-06-13T01:10:13.711Z,71.31
2017-06-13T01:12:16.242Z,71.11
2017-06-13T01:14:18.236Z,71.21
2017-06-13T01:16:20.104Z,71.02
2017-06-13T01:18:21.939Z,71.40
2017-06-13T01:20:23.886Z,71.21
2017-06-13T01:22:25.706Z,71.31
2017-06-13T01:24:27.551Z,71.11
2017-06-13T01:26:29.391Z,71.50
2017-06-13T01:28:31.182Z,71.69
2017-06-13T01:30:32.894Z,71.02
2017-06-13T01:32:34.786Z,71.50
2017-06-13T01:34:36.636Z,71.50
2017-06-13T01:36:38.354Z,71.02
2017-06-13T01:38:40.206Z,71.69
2017-06-13T01:40:42.158Z,71.78
2017-06-13T01:42:44.020Z,71.88
2017-06-13T01:44:45.848Z,72.74
2017-06-13T01:46:47.623Z,72.36
2017-06-13T01:48:49.440Z,72.07
2017-06-13T01:50:51.457Z,71.69
2017-06-13T01:52:53.464Z,71.31
2017-06-13T01:54:55.460Z,72.45
2017-06-13T01:56:57.407Z,71.69
2017-06-13T01:58:59.240Z,72.27
2017-06-13T02:01:01.133Z,72.64
2017-06-13T02:03:03.005Z,72.45
2017-06-13T02:05:05.099Z,72.36
2017-06-13T02:07:06.802Z,72.64
2017-06-13T02:09:08.830Z,73.13
2017-06-13T02:11:10.669Z,73.03
2017-06-13T02:13:12.448Z,73.03
2017-06-13T02:15:14.084Z,73.03
2017-06-13T02:17:15.843Z,73.32
2017-06-13T02:19:17.639Z,73.22
2017-06-13T02:21:19.548Z,72.94
2017-06-13T02:23:21.420Z,72.74
2017-06-13T02:25:23.161Z,71.69
2017-06-13T02:27:24.848Z,72.74
2017-06-13T02:29:26.807Z,73.03
2017-06-13T02:31:28.640Z,73.41
2017-06-13T02:33:30.495Z,73.51
2017-06-13T02:35:32.243Z,73.03
2017-06-13T02:37:34.100Z,73.03
2017-06-13T02:39:36.094Z,73.51
2017-06-13T02:41:37.945Z,74.08
2017-06-13T02:43:39.716Z,73.90
2017-06-13T02:45:41.612Z,74.18
2017-06-13T02:47:43.572Z,74.66
2017-06-13T02:49:45.368Z,74.18
2017-06-13T02:51:47.082Z,74.18
2017-06-13T02:53:48.838Z,74.57
2017-06-13T02:55:50.707Z,74.08
2017-06-13T02:57:52.438Z,74.27
2017-06-13T02:59:54.164Z,73.90
2017-06-13T03:01:55.934Z,73.70
2017-06-13T03:03:57.782Z,74.47
2017-06-13T03:05:59.614Z,74.91
2017-06-13T03:08:01.217Z,75.10
2017-06-13T03:10:02.944Z,75.04
2017-06-13T03:12:04.771Z,75.04
2017-06-13T03:14:06.717Z,75.33
2017-06-13T03:16:08.491Z,75.68
2017-06-13T03:18:10.388Z,75.68
2017-06-13T03:20:12.350Z,75.68
2017-06-13T03:22:14.323Z,75.58
2017-06-13T03:24:16.256Z,76.44
2017-06-13T03:26:18.031Z,76.15
2017-06-13T03:28:19.781Z,75.77
2017-06-13T03:30:21.766Z,76.25
2017-06-13T03:32:23.583Z,76.15
2017-06-13T03:34:25.433Z,76.15
2017-06-13T03:36:27.366Z,76.44
2017-06-13T03:38:29.318Z,75.87
2017-06-13T03:40:31.156Z,76.44
2017-06-13T03:42:33.005Z,76.15
2017-06-13T03:44:36.644Z,76.35
2017-06-13T03:46:38.646Z,77.02
2017-06-13T03:48:40.439Z,77.11
2017-06-13T03:50:42.250Z,78.03
2017-06-13T03:52:43.993Z,77.94
2017-06-13T03:54:46.018Z,78.51
2017-06-13T03:56:47.755Z,78.51
2017-06-13T03:58:49.474Z,78.42
2017-06-13T04:00:51.297Z,78.70
2017-06-13T04:02:53.058Z,78.80
2017-06-13T04:04:55.027Z,78.51
2017-06-13T04:06:56.800Z,78.70
2017-06-13T04:08:58.726Z,78.42
2017-06-13T04:11:00.837Z,78.42
2017-06-13T04:13:02.699Z,78.89
2017-06-13T04:15:04.575Z,79.47
2017-06-13T04:17:06.306Z,79.85
2017-06-13T04:19:08.132Z,79.95
2017-06-13T04:21:09.917Z,79.47
2017-06-13T04:23:11.692Z,79.85
2017-06-13T04:25:13.552Z,80.04
2017-06-13T04:27:15.362Z,81.00
2017-06-13T04:29:17.469Z,81.20
2017-06-13T04:31:19.345Z,81.10
2017-06-13T04:33:21.151Z,80.62
2017-06-13T04:35:22.993Z,80.71
2017-06-13T04:37:24.803Z,80.62
2017-06-13T04:39:26.603Z,80.62
2017-06-13T04:41:28.404Z,79.95
2017-06-13T04:43:30.116Z,80.33
2017-06-13T04:45:31.945Z,79.99
2017-06-13T04:47:33.703Z,80.18
2017-06-13T04:49:35.465Z,80.24
2017-06-13T04:51:37.341Z,79.70
2017-06-13T04:53:39.152Z,79.89
2017-06-13T04:55:40.884Z,79.80
2017-06-13T04:57:42.798Z,79.41
2017-06-13T04:59:44.641Z,79.51
2017-06-13T05:01:46.427Z,78.93
2017-06-13T05:03:48.377Z,78.64
2017-06-13T05:05:50.127Z,79.07
2017-06-13T05:07:52.111Z,78.02
2017-06-13T05:09:53.856Z,78.11
2017-06-13T05:11:55.395Z,77.73
2017-06-13T05:13:57.125Z,77.25
2017-06-13T05:15:58.984Z,75.85
2017-06-13T05:18:00.880Z,75.81
2017-06-13T05:20:02.621Z,75.85
2017-06-13T05:22:04.685Z,75.75
2017-06-13T05:24:06.897Z,74.60
2017-06-13T05:26:08.885Z,74.79
2017-06-13T05:28:10.759Z,74.89
2017-06-13T05:30:12.641Z,74.79
2017-06-13T05:32:14.591Z,74.12
2017-06-13T05:34:16.510Z,74.08
2017-06-13T05:36:18.307Z,75.46
2017-06-13T05:38:20.319Z,74.02
2017-06-13T05:40:22.258Z,73.74
2017-06-13T05:42:24.004Z,72.59
2017-06-13T05:44:25.705Z,72.53
2017-06-13T05:46:27.462Z,71.19
2017-06-13T05:48:29.339Z,70.51
2017-06-13T05:50:31.251Z,71.22
2017-06-13T05:52:32.779Z,69.05
2017-06-13T05:54:34.497Z,67.90
2017-06-13T05:56:36.741Z,67.22
2017-06-13T05:58:38.886Z,66.10
2017-06-13T06:00:40.953Z,64.63
2017-06-13T06:02:42.759Z,60.75
2017-06-13T06:04:44.946Z,60.04
2017-06-13T06:06:46.793Z,61.19
2017-06-13T06:08:48.984Z,61.74
2017-06-13T06:10:50.983Z,63.06
2017-06-13T06:12:52.680Z,64.56
2017-06-13T06:14:54.547Z,64.28
2017-06-13T06:16:56.420Z,63.60
2017-06-13T06:18:58.241Z,63.15
2017-06-13T06:21:00.238Z,60.14
2017-06-13T06:23:02.080Z,57.86
2017-06-13T06:25:04.071Z,57.40
2017-06-13T06:27:05.869Z,54.28
2017-06-13T06:29:07.686Z,54.38
2017-06-13T06:31:09.532Z,55.99
2017-06-13T06:33:11.312Z,54.02
2017-06-13T06:35:12.969Z,53.63
2017-06-13T06:37:14.491Z,53.05
2017-06-13T06:39:16.000Z,54.28
2017-06-13T06:41:17.529Z,54.22
2017-06-13T06:43:19.033Z,56.32
2017-06-13T06:45:20.516Z,57.60
2017-06-13T06:47:22.160Z,54.74
2017-06-13T06:49:23.913Z,49.73
2017-06-13T06:51:25.686Z,48.61
2017-06-13T06:53:27.462Z,46.12
2017-06-13T06:55:29.226Z,44.12
2017-06-13T06:57:30.989Z,43.90
2017-06-13T06:59:32.729Z,46.34
2017-06-13T07:01:34.419Z,49.32
2017-06-13T07:03:36.178Z,48.39
2017-06-13T07:05:37.678Z,46.30
2017-06-13T07:07:39.231Z,45.23
2017-06-13T07:09:40.841Z,47.94
2017-06-13T07:11:42.604Z,50.06
2017-06-13T07:13:44.383Z,51.94
2017-06-13T07:15:46.149Z,54.78
2017-06-13T07:17:47.885Z,55.59
2017-06-13T07:19:49.705Z,57.13
2017-06-13T07:21:51.193Z,58.06
2017-06-13T07:23:52.730Z,58.47
2017-06-13T07:25:54.263Z,58.02
2017-06-13T07:27:55.895Z,57.76
2017-06-13T07:29:57.380Z,56.51
2017-06-13T07:31:58.922Z,56.36
2017-06-13T07:34:00.444Z,57.03
2017-06-13T07:36:02.137Z,57.58
2017-06-13T07:38:03.977Z,59.66
2017-06-13T07:40:05.515Z,61.11
2017-06-13T07:42:07.042Z,59.86
2017-06-13T07:44:08.578Z,62.19
2017-06-13T07:46:10.057Z,60.75
2017-06-13T07:48:11.798Z,59.92
2017-06-13T07:50:13.394Z,59.92
2017-06-13T07:52:14.897Z,57.06
2017-06-13T07:54:16.459Z,57.60
2017-06-13T07:56:18.153Z,57.29
2017-06-13T07:58:19.939Z,59.69
2017-06-13T08:00:21.691Z,57.48
2017-06-13T08:02:23.391Z,58.35
2017-06-13T08:04:25.178Z,59.22
2017-06-13T08:06:26.675Z,58.76
2017-06-13T08:08:28.246Z,58.18
2017-06-13T08:10:29.888Z,58.67
2017-06-13T08:12:31.643Z,57.48
2017-06-13T08:14:33.469Z,57.93
2017-06-13T08:16:35.280Z,58.51
2017-06-13T08:18:37.155Z,59.19
2017-06-13T08:20:38.909Z,60.43
2017-06-13T08:22:40.419Z,61.43
2017-06-13T08:24:41.913Z,59.82
2017-06-13T08:26:43.558Z,57.42
2017-06-13T08:28:45.197Z,56.20
2017-06-13T08:30:46.691Z,56.96
2017-06-13T08:32:48.191Z,55.52
2017-06-13T08:34:50.058Z,55.71
2017-06-13T08:36:51.933Z,55.68
2017-06-13T08:38:53.792Z,57.13
2017-06-13T08:40:55.550Z,57.51
2017-06-13T08:42:57.028Z,57.42
2017-06-13T08:44:58.689Z,57.03
2017-06-13T08:47:00.958Z,57.13
2017-06-13T08:49:02.812Z,56.23
2017-06-13T08:51:04.567Z,57.29
2017-06-13T08:53:06.297Z,58.64
2017-06-13T08:55:08.604Z,58.73
2017-06-13T08:57:10.427Z,59.22
2017-06-13T08:59:12.153Z,59.22
2017-06-13T09:01:14.030Z,58.06
2017-06-13T09:03:15.870Z,58.92
2017-06-13T09:05:17.529Z,58.35
2017-06-13T09:07:19.451Z,59.38
2017-06-13T09:09:21.240Z,59.31
2017-06-13T09:11:23.098Z,59.60
2017-06-13T09:13:25.157Z,59.99
2017-06-13T09:15:26.910Z,59.34
2017-06-13T09:17:28.727Z,59.15
2017-06-13T09:19:30.638Z,57.80
2017-06-13T09:21:32.434Z,59.53
2017-06-13T09:23:34.234Z,56.77
2017-06-13T09:25:36.144Z,56.22
2017-06-13T09:27:37.978Z,55.67
2017-06-13T09:29:39.770Z,54.44
2017-06-13T09:31:41.613Z,52.42
2017-06-13T09:33:43.422Z,52.35
2017-06-13T09:35:45.273Z,52.83
2017-06-13T09:37:47.069Z,50.81
2017-06-13T09:39:48.878Z,50.42
2017-06-13T09:41:50.745Z,49.46
2017-06-13T09:43:52.634Z,48.49
2017-06-13T09:45:54.500Z,50.42
2017-06-13T09:47:56.306Z,49.07
2017-06-13T09:49:58.126Z,49.75
2017-06-13T09:51:59.969Z,49.46
2017-06-13T09:54:01.802Z,49.37
2017-06-13T09:56:03.700Z,49.27
2017-06-13T09:58:05.466Z,48.01
2017-06-13T10:00:07.425Z,49.34
2017-06-13T10:02:09.243Z,51.29
2017-06-13T10:04:11.105Z,50.45
2017-06-13T10:06:13.048Z,48.44
2017-06-13T10:08:14.777Z,47.55
2017-06-13T10:10:16.561Z,50.35
2017-06-13T10:12:18.449Z,49.65
2017-06-13T10:14:20.181Z,49.94
2017-06-13T10:16:21.999Z,49.53
2017-06-13T10:18:23.808Z,49.53
2017-06-13T10:20:25.595Z,49.99
2017-06-13T10:22:27.366Z,51.05
2017-06-13T10:24:29.212Z,49.12
2017-06-13T10:26:31.115Z,49.32
2017-06-13T10:28:32.998Z,48.64
2017-06-13T10:30:34.812Z,49.99
2017-06-13T10:32:36.748Z,51.62
2017-06-13T10:34:38.658Z,51.14
2017-06-13T10:36:40.527Z,50.49
2017-06-13T10:38:42.331Z,49.91
2017-06-13T10:40:44.242Z,51.39
2017-06-13T10:42:46.044Z,50.90
2017-06-13T10:44:47.899Z,50.01
2017-06-13T10:46:49.806Z,49.75
2017-06-13T10:48:51.614Z,50.81
2017-06-13T10:50:53.529Z,50.62
2017-06-13T10:52:55.328Z,48.59
2017-06-13T10:54:57.180Z,50.49
2017-06-13T10:56:58.960Z,49.63
2017-06-13T10:59:00.824Z,49.24
2017-06-13T11:01:02.724Z,48.93
2017-06-13T11:03:04.613Z,50.95
2017-06-13T11:05:06.375Z,51.05
2017-06-13T11:07:08.188Z,51.05
2017-06-13T11:09:10.091Z,51.41
2017-06-13T11:11:11.872Z,52.20
2017-06-13T11:13:13.666Z,52.20
2017-06-13T11:15:15.519Z,49.79
2017-06-13T11:17:17.319Z,51.14
2017-06-13T11:19:19.157Z,51.53
2017-06-13T11:21:21.044Z,50.98
2017-06-13T11:23:22.904Z,50.13
2017-06-13T11:25:24.727Z,49.75
2017-06-13T11:27:26.569Z,48.79
2017-06-13T11:29:28.364Z,48.13
2017-06-13T11:31:30.184Z,47.94
2017-06-13T11:33:32.067Z,47.85
2017-06-13T11:35:33.905Z,46.88
2017-06-13T11:37:35.705Z,46.49
2017-06-13T11:39:37.483Z,47.75
2017-06-13T11:41:39.435Z,46.11
2017-06-13T11:43:41.236Z,47.85
2017-06-13T11:45:43.093Z,48.61
2017-06-13T11:47:44.938Z,47.82
2017-06-13T11:49:46.785Z,49.84
2017-06-13T11:51:48.654Z,50.40
2017-06-13T11:53:50.413Z,49.63
2017-06-13T11:55:52.376Z,50.59
2017-06-13T11:57:54.173Z,50.81
2017-06-13T11:59:56.070Z,49.65
2017-06-13T12:01:58.331Z,50.81
2017-06-13T12:04:00.140Z,47.99
2017-06-13T12:06:01.889Z,49.84
2017-06-13T12:08:04.143Z,50.01
2017-06-13T12:10:05.906Z,50.30
2017-06-13T12:12:08.242Z,51.48
2017-06-13T12:14:10.073Z,50.98
2017-06-13T12:16:12.182Z,50.30
2017-06-13T12:18:13.938Z,52.11
2017-06-13T12:20:16.468Z,52.01
2017-06-13T12:22:18.828Z,52.08
2017-06-13T12:24:20.626Z,52.85
2017-06-13T12:26:22.483Z,53.72
2017-06-13T12:28:24.826Z,53.81
2017-06-13T12:30:27.366Z,54.68
2017-06-13T12:32:29.488Z,54.10
2017-06-13T12:34:33.002Z,54.87
2017-06-13T12:36:35.479Z,53.53
2017-06-13T12:38:37.857Z,54.00
2017-06-13T12:40:39.645Z,54.78
2017-06-13T12:42:41.603Z,54.30
2017-06-13T12:44:43.543Z,54.87
2017-06-13T12:46:45.683Z,55.07
2017-06-13T12:48:47.564Z,54.61
2017-06-13T12:50:49.619Z,53.91
2017-06-13T12:52:51.463Z,53.91
2017-06-13T12:54:53.333Z,53.53
2017-06-13T12:56:55.444Z,53.23
2017-06-13T12:58:57.617Z,53.88
2017-06-13T13:01:40.706Z,54.46
2017-06-13T13:04:25.610Z,55.62
2017-06-13T13:07:08.328Z,55.04
2017-06-13T13:09:09.722Z,54.85
2017-06-13T13:11:11.497Z,53.69
2017-06-13T13:13:13.640Z,54.75
2017-06-13T13:15:15.396Z,55.43
2017-06-13T13:17:57.250Z,55.81
2017-06-13T13:19:58.758Z,55.90
2017-06-13T13:22:00.927Z,56.03
2017-06-13T13:24:03.174Z,55.93
2017-06-13T13:26:04.875Z,54.49
2017-06-13T13:28:06.621Z,54.80
2017-06-13T13:30:08.620Z,54.00
2017-06-13T13:32:10.656Z,54.10
2017-06-13T13:34:12.479Z,55.87
2017-06-13T13:36:14.417Z,53.74
2017-06-13T13:38:16.318Z,54.42
2017-06-13T13:40:18.171Z,55.00
2017-06-13T13:42:20.399Z,54.00
2017-06-13T13:44:22.150Z,56.03
2017-06-13T13:46:23.813Z,55.55
2017-06-13T13:49:06.750Z,55.65
2017-06-13T13:51:08.750Z,55.45
2017-06-13T13:53:10.220Z,55.74
2017-06-13T13:55:13.207Z,53.05
2017-06-13T13:58:00.860Z,51.60
2017-06-13T14:00:44.503Z,52.47
2017-06-13T14:02:46.261Z,51.41
2017-06-13T14:04:47.754Z,51.82
2017-06-13T14:06:51.476Z,52.11
2017-06-13T14:08:53.261Z,52.40
2017-06-13T14:10:55.390Z,50.85
2017-06-13T14:12:57.270Z,50.76
2017-06-13T14:14:58.975Z,50.85
2017-06-13T14:17:00.764Z,51.43
2017-06-13T14:19:02.327Z,52.40
2017-06-13T14:21:04.431Z,51.31
2017-06-13T14:23:06.116Z,52.08
2017-06-13T14:25:08.537Z,52.08
2017-06-13T14:27:10.481Z,53.53
2017-06-13T14:29:12.236Z,52.75
2017-06-13T14:31:13.970Z,53.43
2017-06-13T14:33:16.022Z,52.59
2017-06-13T14:35:17.520Z,53.55
2017-06-13T14:37:19.442Z,54.54
2017-06-13T14:39:21.242Z,53.39
2017-06-13T14:41:23.726Z,53.29
2017-06-13T14:43:25.670Z,52.06
2017-06-13T14:45:31.477Z,50.81
2017-06-13T14:47:33.067Z,51.39
2017-06-13T14:51:03.072Z,52.37
2017-06-13T14:53:50.693Z,50.84
2017-06-13T14:57:14.877Z,49.39
2017-06-13T14:59:57.954Z,48.52
2017-06-13T15:02:00.066Z,49.19
2017-06-13T15:04:04.453Z,48.81
2017-06-13T15:06:07.661Z,49.58
2017-06-13T15:08:11.619Z,49.10
2017-06-13T15:10:13.466Z,49.68
2017-06-13T15:12:15.914Z,48.42
2017-06-13T15:14:17.683Z,48.03
2017-06-13T15:16:19.557Z,50.52
2017-06-13T15:18:21.444Z,49.07
2017-06-13T15:20:23.333Z,48.69
2017-06-13T15:22:25.147Z,50.52
2017-06-13T15:24:27.036Z,50.04
2017-06-13T15:26:28.955Z,50.81
2017-06-13T15:28:30.886Z,51.68
2017-06-13T15:30:32.707Z,50.71
2017-06-13T15:32:34.599Z,50.62
2017-06-13T15:34:36.810Z,50.23
2017-06-13T15:36:38.679Z,49.82
2017-06-13T15:38:40.641Z,49.53
2017-06-13T15:40:43.089Z,50.21
2017-06-13T15:42:45.963Z,50.59
2017-06-13T15:44:47.769Z,51.46
2017-06-13T15:46:49.686Z,50.88
2017-06-13T15:48:51.584Z,51.36
2017-06-13T15:50:53.559Z,52.81
2017-06-13T15:52:55.426Z,53.09
2017-06-13T15:54:58.023Z,52.33
2017-06-13T15:57:00.673Z,52.91
2017-06-13T15:59:02.559Z,52.91
2017-06-13T16:01:04.493Z,52.13
2017-06-13T16:03:06.401Z,52.81
2017-06-13T16:05:09.191Z,52.42
2017-06-13T16:07:10.974Z,52.33
2017-06-13T16:09:13.611Z,52.13
2017-06-13T16:11:16.121Z,51.07
2017-06-13T16:13:18.812Z,50.98
2017-06-13T16:15:21.376Z,52.93
2017-06-13T16:17:23.998Z,51.56
2017-06-13T16:19:25.851Z,53.51
2017-06-13T16:21:28.382Z,52.04
2017-06-13T16:23:30.345Z,53.58
2017-06-13T16:25:32.968Z,53.09
2017-06-13T16:27:35.497Z,52.55
2017-06-13T16:29:37.272Z,54.38
2017-06-13T16:31:39.214Z,53.61
2017-06-13T16:33:40.994Z,52.93
2017-06-13T16:35:43.027Z,53.13
2017-06-13T16:37:45.665Z,52.06
2017-06-13T16:39:47.518Z,52.16
2017-06-13T16:41:50.083Z,52.35
2017-06-13T16:43:52.065Z,51.77
2017-06-13T16:45:54.553Z,51.48
2017-06-13T16:47:56.425Z,51.77
2017-06-13T16:49:59.014Z,51.87
2017-06-13T16:52:01.400Z,52.13
2017-06-13T16:54:03.278Z,51.29
2017-06-13T16:56:05.191Z,50.81
2017-06-13T16:58:07.625Z,51.48
2017-06-13T17:00:10.155Z,51.10
2017-06-13T17:02:12.071Z,52.35
2017-06-13T17:04:13.888Z,50.40
2017-06-13T17:06:16.473Z,51.26
2017-06-13T17:08:18.868Z,51.65
2017-06-13T17:10:21.441Z,50.78
2017-06-13T17:12:23.248Z,50.90
2017-06-13T17:14:25.218Z,50.62
2017-06-13T17:16:27.098Z,49.55
2017-06-13T17:18:29.586Z,50.90
2017-06-13T17:20:31.493Z,49.55
2017-06-13T17:22:34.060Z,49.84
2017-06-13T17:24:36.652Z,49.27
2017-06-13T17:26:38.490Z,50.62
2017-06-13T17:28:40.989Z,49.84
2017-06-13T17:30:42.918Z,50.42
2017-06-13T17:32:45.574Z,50.71
2017-06-13T17:34:47.488Z,50.42
2017-06-13T17:36:50.022Z,51.00
2017-06-13T17:38:52.628Z,51.29
2017-06-13T17:40:54.915Z,51.10
2017-06-13T17:42:58.674Z,49.75
2017-06-13T17:45:00.804Z,50.04
2017-06-13T17:47:02.663Z,51.68
2017-06-13T17:49:04.701Z,49.94
2017-06-13T17:51:06.535Z,49.94
2017-06-13T17:53:08.711Z,50.81
2017-06-13T17:55:11.682Z,50.32
2017-06-13T17:57:13.536Z,51.48
2017-06-13T17:59:16.496Z,52.35
2017-06-13T18:01:18.469Z,51.46
2017-06-13T18:03:20.705Z,50.90
2017-06-13T18:05:22.913Z,49.15
2017-06-13T18:07:25.035Z,49.05
2017-06-13T18:09:26.707Z,50.21
2017-06-13T18:11:28.935Z,50.21
2017-06-13T18:13:30.798Z,49.73
2017-06-13T18:15:32.556Z,49.73
2017-06-13T18:17:34.568Z,50.40
2017-06-13T18:19:36.677Z,50.78
2017-06-13T18:21:38.190Z,50.88
2017-06-13T18:23:39.694Z,51.46
2017-06-13T18:25:41.431Z,50.88
2017-06-13T18:27:43.721Z,50.40
2017-06-13T18:29:45.682Z,51.26
2017-06-13T18:31:47.890Z,51.07
2017-06-13T18:33:50.095Z,51.36
2017-06-13T18:35:52.253Z,51.05
2017-06-13T18:37:53.849Z,51.43
2017-06-13T18:39:56.227Z,51.62
2017-06-13T18:41:58.786Z,52.40
2017-06-13T18:44:01.815Z,52.30
2017-06-13T18:46:03.676Z,53.72
2017-06-13T18:48:05.574Z,53.91
2017-06-13T18:50:07.595Z,54.97
2017-06-13T18:52:09.542Z,55.83
2017-06-13T18:54:11.108Z,54.97
2017-06-13T18:56:12.744Z,54.97
2017-06-13T18:58:14.227Z,55.16
2017-06-13T19:00:16.467Z,54.87
2017-06-13T19:02:18.475Z,55.16
2017-06-13T19:04:20.410Z,55.13
2017-06-13T19:06:22.140Z,55.52
2017-06-13T19:08:24.514Z,55.81
2017-06-13T19:10:26.408Z,56.20
2017-06-13T19:12:27.976Z,57.45
2017-06-13T19:14:29.978Z,57.15
2017-06-13T19:16:32.010Z,56.67
2017-06-13T19:18:33.992Z,57.15
2017-06-13T19:20:35.803Z,57.45
2017-06-13T19:22:37.351Z,57.83
2017-06-13T19:24:39.241Z,56.87
2017-06-13T19:26:41.050Z,56.77
2017-06-13T19:28:42.513Z,56.29
2017-06-13T19:30:44.565Z,55.71
2017-06-13T19:32:47.644Z,57.25
2017-06-13T19:34:52.377Z,56.29
2017-06-13T19:36:55.103Z,57.35
2017-06-13T19:38:57.142Z,57.35
2017-06-13T19:40:59.967Z,57.83
2017-06-13T19:43:03.567Z,57.54
2017-06-13T19:45:06.321Z,57.83
2017-06-13T19:47:08.799Z,57.06
2017-06-13T19:49:11.070Z,56.58
2017-06-13T19:51:12.915Z,57.03
2017-06-13T19:53:15.263Z,57.60
2017-06-13T19:55:18.812Z,56.45
2017-06-13T19:57:20.784Z,56.55
2017-06-13T19:59:22.663Z,57.13
2017-06-13T20:01:24.215Z,56.55
2017-06-13T20:03:25.744Z,56.65
2017-06-13T20:05:27.315Z,55.98
2017-06-13T20:07:29.168Z,56.26
2017-06-13T20:09:31.017Z,56.16
2017-06-13T20:11:32.708Z,56.16
2017-06-13T20:13:34.914Z,56.26
2017-06-13T20:15:36.755Z,56.33
2017-06-13T20:17:38.655Z,55.66
2017-06-13T20:19:40.520Z,55.85
2017-06-13T20:21:43.443Z,55.66
2017-06-13T20:23:45.260Z,55.56
2017-06-13T20:25:47.021Z,56.14
2017-06-13T20:27:48.917Z,56.52
2017-06-13T20:29:50.770Z,55.66
2017-06-13T20:31:52.603Z,56.33
2017-06-13T20:33:54.406Z,55.91
2017-06-13T20:35:56.302Z,56.01
2017-06-13T20:37:58.043Z,56.11
2017-06-13T20:40:00.072Z,56.40
2017-06-13T20:42:01.763Z,56.49
2017-06-13T20:44:03.709Z,57.07
2017-06-13T20:46:05.628Z,56.98
2017-06-13T20:48:07.410Z,57.26
2017-06-13T20:50:09.473Z,57.36
2017-06-13T20:52:11.301Z,57.45
2017-06-13T20:54:13.234Z,57.14
2017-06-13T20:56:15.387Z,57.71
2017-06-13T20:58:17.240Z,57.90
2017-06-13T21:00:19.162Z,58.48
2017-06-13T21:02:20.947Z,58.48
2017-06-13T21:04:22.738Z,58.48
2017-06-13T21:06:24.423Z,58.87
2017-06-13T21:08:26.464Z,58.77
2017-06-13T21:10:28.300Z,58.67
2017-06-13T21:12:30.127Z,59.61
2017-06-13T21:14:31.900Z,58.96
2017-06-13T21:16:33.822Z,60.02
2017-06-13T21:18:35.580Z,59.61
2017-06-13T21:20:37.535Z,59.70
2017-06-13T21:22:39.838Z,59.41
2017-06-13T21:24:42.026Z,59.80
2017-06-13T21:26:44.493Z,59.70
2017-06-13T21:28:46.805Z,60.85
2017-06-13T21:30:49.027Z,60.18
2017-06-13T21:32:51.238Z,60.95
2017-06-13T21:34:53.802Z,60.95
2017-06-13T21:36:55.713Z,61.21
2017-06-13T21:38:57.915Z,60.72
2017-06-13T21:40:59.839Z,61.40
2017-06-13T21:43:01.787Z,61.11
2017-06-13T21:45:03.682Z,62.16
2017-06-13T21:47:05.560Z,61.59
2017-06-13T21:49:07.376Z,62.74
2017-06-13T21:51:10.156Z,62.26
2017-06-13T21:53:12.449Z,61.30
2017-06-13T21:55:14.589Z,61.88
2017-06-13T21:57:16.800Z,62.45
2017-06-13T21:59:18.878Z,61.98
2017-06-13T22:01:20.728Z,62.93
2017-06-13T22:03:22.703Z,62.26
2017-06-13T22:05:24.965Z,61.85
2017-06-13T22:07:27.079Z,61.27
2017-06-13T22:09:29.313Z,61.78
2017-06-13T22:11:31.100Z,62.04
2017-06-13T22:14:14.896Z,62.93
2017-06-13T22:16:16.417Z,61.85
2017-06-13T22:18:17.975Z,62.71
2017-06-13T22:20:19.796Z,63.00
2017-06-13T22:22:22.092Z,63.19
2017-06-13T22:24:23.898Z,63.57
2017-06-13T22:26:25.807Z,63.19
2017-06-13T22:28:29.712Z,63.48
2017-06-13T22:30:31.467Z,63.54
2017-06-13T22:32:33.343Z,64.40
2017-06-13T22:34:35.125Z,64.31
2017-06-13T22:36:36.989Z,64.79
2017-06-13T22:38:38.791Z,64.22
2017-06-13T22:40:40.673Z,64.69
2017-06-13T22:42:42.928Z,64.22
2017-06-13T22:44:45.237Z,64.02
2017-06-13T22:46:47.106Z,64.22
2017-06-13T22:48:48.926Z,64.59
2017-06-13T22:50:50.856Z,64.59
2017-06-13T22:52:52.753Z,64.69
2017-06-13T22:54:54.620Z,65.08
2017-06-13T22:56:56.462Z,64.85
2017-06-13T22:58:58.234Z,64.98
2017-06-13T23:00:59.945Z,65.05
2017-06-13T23:03:01.866Z,65.05
2017-06-13T23:05:03.675Z,65.91
2017-06-13T23:07:06.226Z,66.09
2017-06-13T23:09:08.066Z,64.95
2017-06-13T23:11:10.870Z,65.81
2017-06-13T23:13:12.867Z,64.76
2017-06-13T23:15:14.669Z,65.14
2017-06-13T23:17:16.549Z,65.81
2017-06-13T23:19:18.452Z,65.91
2017-06-13T23:21:20.699Z,64.66
2017-06-13T23:23:22.912Z,65.11
2017-06-13T23:25:24.749Z,65.68
2017-06-13T23:27:26.864Z,65.88
2017-06-13T23:29:28.751Z,65.97
2017-06-13T23:31:30.979Z,65.68
2017-06-13T23:33:32.627Z,65.78
2017-06-13T23:35:34.863Z,66.16
2017-06-13T23:37:36.795Z,66.35
2017-06-13T23:39:38.580Z,66.16
2017-06-13T23:41:40.387Z,66.16
2017-06-13T23:43:42.282Z,66.35
2017-06-13T23:45:44.209Z,66.64
2017-06-13T23:47:45.977Z,66.83
2017-06-13T23:49:47.728Z,66.35
2017-06-13T23:51:49.614Z,66.45
2017-06-13T23:53:51.484Z,66.54
2017-06-13T23:55:53.362Z,67.11
2017-06-13T23:57:55.192Z,66.45
2017-06-13T23:59:57.515Z,66.83
